| time (UTC) | temp C | wind direction | speed KPH | gust KPH | rain 1hr cm | rain 24hr cm | rain mn cm | humidity % | barometer mb |
| 20260906020053 | 15 | 298 | 45.1 | 56.3 | 0.00 | 0.05 | 0.00 | 82 | 1015.4 |
| 20260906014545 | 15 | 302 | 49.9 | 61.2 | 0.00 | 0.05 | 0.00 | 82 | 1015.2 |
| 20260906013100 | 15 | 302 | 43.5 | 56.3 | 0.00 | 0.05 | 0.00 | 82 | 1015.1 |
| 20260906011546 | 15 | 302 | 49.9 | 59.5 | 0.00 | 0.05 | 0.00 | 82 | 1014.9 |
| 20260906010039 | 15 | 298 | 46.7 | 59.5 | 0.00 | 0.05 | 0.00 | 82 | 1014.6 |
| 20260906004538 | 15 | 301 | 41.8 | 57.9 | 0.00 | 0.05 | 0.00 | 83 | 1014.5 |
| 20260906003037 | 15 | 299 | 49.9 | 62.8 | 0.00 | 0.05 | 0.00 | 81 | 1014.4 |
| 20260906001532 | 15 | 291 | 49.9 | 59.5 | 0.00 | 0.05 | 0.00 | 81 | 1014.1 |
| 20260906000029 | 15 | 309 | 49.9 | 62.8 | 0.00 | 0.05 | 0.00 | 81 | 1014.0 |
| 20260905234527 | 15 | 309 | 48.3 | 57.9 | 0.00 | 0.05 | 0.00 | 81 | 1013.6 |
| 20260905233026 | 15 | 324 | 45.1 | 59.5 | 0.00 | 0.05 | 0.00 | 82 | 1013.5 |
| 20260905231527 | 15 | 297 | 46.7 | 59.5 | 0.00 | 0.05 | 0.00 | 82 | 1013.2 |
| 20260905230125 | 15 | 300 | 46.7 | 59.5 | 0.00 | 0.05 | 0.00 | 82 | 1013.2 |
| 20260905224521 | 15 | 304 | 49.9 | 59.5 | 0.00 | 0.05 | 0.00 | 80 | 1013.0 |
| 20260905223020 | 15 | 311 | 49.9 | 64.4 | 0.00 | 0.05 | 0.00 | 81 | 1012.7 |
| 20260905221517 | 15 | 303 | 43.5 | 57.9 | 0.00 | 0.05 | 0.00 | 83 | 1012.6 |
| 20260905220014 | 15 | 291 | 48.3 | 61.2 | 0.00 | 0.05 | 0.00 | 81 | 1012.3 |
| 20260905214515 | 15 | 285 | 48.3 | 61.2 | 0.00 | 0.05 | 0.05 | 81 | 1012.1 |
| 20260905213014 | 15 | 287 | 49.9 | 62.8 | 0.00 | 0.05 | 0.05 | 80 | 1011.8 |
| 20260905211512 | 15 | 274 | 46.7 | 59.5 | 0.00 | 0.05 | 0.05 | 81 | 1011.6 |
| 20260905210010 | 15 | 288 | 54.7 | 66.0 | 0.03 | 0.05 | 0.05 | 80 | 1011.4 |
| 20260905204508 | 15 | 288 | 49.9 | 66.0 | 0.03 | 0.05 | 0.05 | 80 | 1011.0 |
| 20260905203006 | 15 | 329 | 53.1 | 66.0 | 0.03 | 0.05 | 0.05 | 79 | 1010.8 |
| 20260905201506 | 15 | 330 | 41.8 | 67.6 | 0.03 | 0.05 | 0.05 | 79 | 1011.0 |
| 20260905200004 | 15 | 289 | 56.3 | 69.2 | 0.00 | 0.05 | 0.03 | 79 | 1010.5 |
| 20260905194502 | 15 | 288 | 57.9 | 77.2 | 0.00 | 0.13 | 0.03 | 78 | 1010.4 |
| 20260905193059 | 15 | 269 | 46.7 | 59.5 | 0.00 | 0.13 | 0.03 | 79 | 1010.1 |
| 20260905191557 | 15 | 284 | 40.2 | 53.1 | 0.00 | 0.13 | 0.03 | 78 | 1009.9 |
| 20260905190056 | 15 | 275 | 33.8 | 56.3 | 0.00 | 0.13 | 0.03 | 77 | 1009.7 |
| 20260905184600 | 15 | 279 | 30.6 | 49.9 | 0.00 | 0.25 | 0.03 | 76 | 1009.6 |
| 20260905183055 | 15 | 293 | 43.5 | 62.8 | 0.00 | 0.25 | 0.03 | 76 | 1009.6 |
| 20260905181553 | 15 | 276 | 45.1 | 59.5 | 0.00 | 0.25 | 0.03 | 75 | 1009.4 |
| 20260905180051 | 15 | 271 | 38.6 | 56.3 | 0.00 | 0.25 | 0.03 | 75 | 1009.2 |
| 20260905174553 | 16 | 286 | 45.1 | 62.8 | 0.00 | 0.25 | 0.03 | 72 | 1009.1 |
| 20260905173049 | 16 | 281 | 35.4 | 56.3 | 0.00 | 0.25 | 0.03 | 72 | 1008.9 |
| 20260905171602 | 16 | 316 | 33.8 | 49.9 | 0.00 | 0.25 | 0.03 | 72 | 1008.9 |
| 20260905170052 | 16 | 259 | 45.1 | 61.2 | 0.00 | 0.25 | 0.03 | 70 | 1008.8 |
| 20260905164550 | 16 | 278 | 29.0 | 49.9 | 0.00 | 0.25 | 0.03 | 72 | 1008.7 |
| 20260905163053 | 16 | 304 | 32.2 | 45.1 | 0.00 | 0.25 | 0.03 | 70 | 1008.6 |
| 20260905161544 | 16 | 293 | 24.1 | 41.8 | 0.00 | 0.25 | 0.03 | 73 | 1008.4 |
| 20260905160043 | 16 | 264 | 27.4 | 45.1 | 0.00 | 0.25 | 0.03 | 74 | 1008.4 |
| 20260905154555 | 16 | 293 | 33.8 | 54.7 | 0.00 | 0.25 | 0.03 | 74 | 1008.2 |
| 20260905153041 | 16 | 289 | 24.1 | 41.8 | 0.00 | 0.25 | 0.03 | 74 | 1008.1 |
| 20260905151539 | 16 | 250 | 30.6 | 48.3 | 0.00 | 0.25 | 0.03 | 71 | 1007.9 |
| 20260905150044 | 16 | 279 | 25.7 | 48.3 | 0.00 | 0.25 | 0.03 | 74 | 1007.8 |
| 20260905144539 | 16 | 286 | 20.9 | 51.5 | 0.00 | 0.28 | 0.03 | 72 | 1007.7 |
| 20260905143038 | 16 | 243 | 16.1 | 46.7 | 0.00 | 0.28 | 0.03 | 75 | 1007.9 |
| 20260905141536 | 16 | 338 | 29.0 | 45.1 | 0.00 | 0.28 | 0.03 | 72 | 1007.7 |
| 20260905140034 | 16 | 284 | 32.2 | 49.9 | 0.00 | 0.28 | 0.03 | 72 | 1007.5 |
| 20260905134532 | 16 | 271 | 20.9 | 40.2 | 0.00 | 0.48 | 0.03 | 76 | 1007.4 |
| 20260905133032 | 16 | 236 | 12.9 | 41.8 | 0.00 | 0.48 | 0.03 | 78 | 1007.3 |
| 20260905131537 | 16 | 262 | 25.7 | 43.5 | 0.00 | 0.48 | 0.03 | 76 | 1007.3 |
| 20260905130029 | 16 | 266 | 29.0 | 45.1 | 0.00 | 0.48 | 0.03 | 75 | 1007.4 |
| 20260905124529 | 16 | 261 | 22.5 | 33.8 | 0.00 | 0.79 | 0.03 | 78 | 1007.2 |
| 20260905123035 | 16 | 268 | 20.9 | 48.3 | 0.00 | 0.79 | 0.03 | 76 | 1007.1 |
| 20260905121530 | 16 | 284 | 29.0 | 45.1 | 0.00 | 0.79 | 0.03 | 77 | 1006.9 |
| 20260905120025 | 16 | 287 | 30.6 | 46.7 | 0.00 | 0.79 | 0.03 | 77 | 1006.7 |
| 20260905114522 | 16 | 259 | 27.4 | 41.8 | 0.00 | 1.02 | 0.03 | 76 | 1006.7 |
| 20260905113024 | 16 | 278 | 33.8 | 45.1 | 0.00 | 1.02 | 0.03 | 77 | 1006.6 |
| 20260905111521 | 16 | 277 | 29.0 | 41.8 | 0.00 | 1.02 | 0.03 | 75 | 1006.5 |
| 20260905110018 | 16 | 269 | 24.1 | 43.5 | 0.00 | 1.02 | 0.03 | 76 | 1006.4 |
| 20260905104520 | 16 | 294 | 19.3 | 46.7 | 0.00 | 1.14 | 0.03 | 76 | 1006.3 |
| 20260905103017 | 15 | 255 | 22.5 | 40.2 | 0.03 | 1.14 | 0.03 | 78 | 1006.0 |
| 20260905101514 | 16 | 259 | 20.9 | 38.6 | 0.03 | 1.14 | 0.03 | 79 | 1006.0 |
| 20260905100014 | 16 | 237 | 24.1 | 40.2 | 0.03 | 1.14 | 0.03 | 77 | 1005.9 |
| 20260905094512 | 16 | 276 | 22.5 | 43.5 | 0.03 | 1.27 | 0.03 | 78 | 1005.7 |
| 20260905093011 | 16 | 285 | 33.8 | 48.3 | 0.00 | 1.27 | 0.00 | 77 | 1005.6 |
| 20260905091510 | 16 | 289 | 35.4 | 49.9 | 0.00 | 1.27 | 0.00 | 76 | 1005.5 |
| 20260905090011 | 16 | 254 | 24.1 | 38.6 | 0.00 | 1.27 | 0.00 | 77 | 1005.5 |
| 20260905084507 | 15 | 280 | 33.8 | 46.7 | 0.00 | 1.27 | 0.00 | 76 | 1005.4 |
| 20260905083006 | 16 | 281 | 27.4 | 49.9 | 0.00 | 1.27 | 0.00 | 78 | 1005.3 |
| 20260905081505 | 15 | 288 | 32.2 | 46.7 | 0.00 | 1.27 | 0.00 | 78 | 1005.1 |
| 20260905080005 | 15 | 264 | 25.7 | 41.8 | 0.00 | 1.27 | 0.00 | 78 | 1005.0 |
| 20260905074503 | 15 | 240 | 25.7 | 40.2 | 0.00 | 1.27 | 0.00 | 78 | 1004.9 |
| 20260905073002 | 15 | 290 | 29.0 | 38.6 | 0.00 | 1.27 | 0.00 | 79 | 1004.9 |
| 20260905071602 | 15 | 267 | 22.5 | 35.4 | 0.00 | 1.27 | 0.00 | 79 | 1004.8 |
| 20260905070100 | 15 | 265 | 22.5 | 38.6 | 0.00 | 1.27 | 0.00 | 79 | 1004.6 |
| 20260905064558 | 15 | 286 | 25.7 | 43.5 | 0.00 | 1.27 | 0.00 | 79 | 1004.5 |
| 20260905063054 | 15 | 274 | 19.3 | 37.0 | 0.00 | 1.27 | 0.00 | 80 | 1004.4 |
| 20260905061602 | 15 | 276 | 22.5 | 40.2 | 0.00 | 1.27 | 0.00 | 80 | 1004.3 |
| 20260905060101 | 15 | 295 | 30.6 | 45.1 | 0.00 | 1.27 | 0.00 | 78 | 1004.0 |
| 20260905054555 | 15 | 309 | 27.4 | 35.4 | 0.00 | 1.27 | 0.00 | 80 | 1004.0 |
| 20260905053041 | 15 | 255 | 30.6 | 43.5 | 0.00 | 1.27 | 0.00 | 80 | 1003.7 |
| 20260905051543 | 15 | 281 | 25.7 | 40.2 | 0.00 | 1.27 | 0.00 | 81 | 1003.6 |
| 20260905050038 | 15 | 291 | 20.9 | 35.4 | 0.00 | 1.27 | 0.00 | 81 | 1003.4 |
| 20260905044536 | 15 | 274 | 20.9 | 33.8 | 0.00 | 1.27 | 0.00 | 81 | 1003.3 |
| 20260905043035 | 15 | 247 | 20.9 | 37.0 | 0.00 | 1.27 | 0.00 | 82 | 1003.0 |
| 20260905041533 | 15 | 274 | 22.5 | 35.4 | 0.00 | 1.27 | 0.00 | 83 | 1002.8 |
| 20260905040031 | 15 | 295 | 14.5 | 27.4 | 0.00 | 1.27 | 0.00 | 82 | 1002.7 |
| 20260905034534 | 15 | 276 | 16.1 | 33.8 | 0.00 | 1.27 | 0.00 | 82 | 1002.5 |
| 20260905033030 | 15 | 249 | 19.3 | 48.3 | 0.00 | 1.27 | 0.00 | 80 | 1002.6 |
| 20260905031537 | 15 | 292 | 30.6 | 43.5 | 0.00 | 1.27 | 0.00 | 81 | 1002.4 |
| 20260905030027 | 15 | 293 | 30.6 | 43.5 | 0.00 | 1.27 | 0.00 | 81 | 1002.3 |
| 20260905024550 | 15 | 287 | 29.0 | 51.5 | 0.00 | 1.27 | 0.00 | 81 | 1002.1 |
| 20260905023024 | 15 | 278 | 41.8 | 53.1 | 0.00 | 1.27 | 0.00 | 81 | 1002.0 |
| 20260905021521 | 15 | 278 | 40.2 | 57.9 | 0.00 | 1.27 | 0.00 | 82 | 1001.8 |